Sonoita, Arizona
Current Conditions -  °F | °C
As of 5:56 AM on Saturday 25 Oct 2014 (Local Time) from KALK Reporting Station
Clear Clear  
Wind Chill: 58°   Ceiling: Unl
Heat Index: 58°   Visibility: 10mi
Dew Point: 43°   Wind: 3mph
Humidity: 58%   Direction: 220°SW
Pressure: 30.25"   Gusts: NA
Location:  31.68°N, 110.66°W
Report Text: KALK 251256Z AUTO 22003KT 10SM CLR 14/06 A3025 RMK AO2 SLP165 T01440061 TSNO
Loading
Personal Weather Stations






























Interactive Weather Map
Tropical Storm Tracking
New forecast layout! Learn more

10-Day Weather Forecast

Advertisements
Track Severe Weather on mobile